sensor_id;sensor_type;location;lat;lon;timestamp;P1;durP1;ratioP1;P2;durP2;ratioP2
50681;SDS011;36779;52.168;20.878;2022-12-07T00:02:01;59.70;;;22.30;;
50681;SDS011;36779;52.168;20.878;2022-12-07T00:04:33;60.20;;;23.20;;
50681;SDS011;36779;52.168;20.878;2022-12-07T00:07:07;53.10;;;22.30;;
50681;SDS011;36779;52.168;20.878;2022-12-07T00:09:38;60.90;;;23.10;;
50681;SDS011;36779;52.168;20.878;2022-12-07T00:12:08;54.70;;;20.90;;
50681;SDS011;36779;52.168;20.878;2022-12-07T00:14:37;56.30;;;22.70;;
50681;SDS011;36779;52.168;20.878;2022-12-07T00:17:06;47.40;;;20.00;;
50681;SDS011;36779;52.168;20.878;2022-12-07T00:19:35;50.30;;;20.90;;
50681;SDS011;36779;52.168;20.878;2022-12-07T00:22:05;55.70;;;22.00;;
50681;SDS011;36779;52.168;20.878;2022-12-07T00:24:34;53.20;;;20.60;;
50681;SDS011;36779;52.168;20.878;2022-12-07T00:27:08;59.10;;;21.40;;
50681;SDS011;36779;52.168;20.878;2022-12-07T00:29:37;53.50;;;21.60;;
50681;SDS011;36779;52.168;20.878;2022-12-07T00:32:06;47.90;;;19.10;;
50681;SDS011;36779;52.168;20.878;2022-12-07T00:34:39;47.20;;;18.70;;
50681;SDS011;36779;52.168;20.878;2022-12-07T00:37:10;51.90;;;21.10;;
50681;SDS011;36779;52.168;20.878;2022-12-07T00:39:40;51.10;;;21.00;;
50681;SDS011;36779;52.168;20.878;2022-12-07T00:42:10;45.90;;;18.80;;
50681;SDS011;36779;52.168;20.878;2022-12-07T00:44:39;54.60;;;21.10;;
50681;SDS011;36779;52.168;20.878;2022-12-07T00:47:12;48.10;;;20.10;;
50681;SDS011;36779;52.168;20.878;2022-12-07T00:49:40;44.70;;;18.10;;
50681;SDS011;36779;52.168;20.878;2022-12-07T00:52:12;46.20;;;18.40;;
50681;SDS011;36779;52.168;20.878;2022-12-07T00:54:41;46.60;;;18.70;;
50681;SDS011;36779;52.168;20.878;2022-12-07T00:57:12;45.30;;;17.70;;
50681;SDS011;36779;52.168;20.878;2022-12-07T00:59:44;39.80;;;15.40;;
50681;SDS011;36779;52.168;20.878;2022-12-07T01:02:15;40.10;;;15.20;;
50681;SDS011;36779;52.168;20.878;2022-12-07T01:04:44;43.00;;;15.10;;
50681;SDS011;36779;52.168;20.878;2022-12-07T01:07:17;34.70;;;14.50;;
50681;SDS011;36779;52.168;20.878;2022-12-07T01:09:46;32.60;;;13.60;;
50681;SDS011;36779;52.168;20.878;2022-12-07T01:12:16;36.10;;;14.40;;
50681;SDS011;36779;52.168;20.878;2022-12-07T01:14:45;35.00;;;14.80;;
50681;SDS011;36779;52.168;20.878;2022-12-07T01:17:14;30.70;;;13.60;;
50681;SDS011;36779;52.168;20.878;2022-12-07T01:19:43;28.10;;;10.80;;
50681;SDS011;36779;52.168;20.878;2022-12-07T01:22:12;21.00;;;10.80;;
50681;SDS011;36779;52.168;20.878;2022-12-07T01:24:40;25.40;;;10.20;;
50681;SDS011;36779;52.168;20.878;2022-12-07T01:27:09;23.80;;;9.20;;
50681;SDS011;36779;52.168;20.878;2022-12-07T01:29:37;20.90;;;9.10;;
50681;SDS011;36779;52.168;20.878;2022-12-07T01:32:07;24.30;;;10.20;;
50681;SDS011;36779;52.168;20.878;2022-12-07T01:34:35;22.20;;;9.80;;
50681;SDS011;36779;52.168;20.878;2022-12-07T01:37:05;23.10;;;10.80;;
50681;SDS011;36779;52.168;20.878;2022-12-07T01:39:34;29.00;;;11.10;;
50681;SDS011;36779;52.168;20.878;2022-12-07T01:42:03;23.00;;;10.10;;
50681;SDS011;36779;52.168;20.878;2022-12-07T01:47:34;20.50;;;8.50;;
50681;SDS011;36779;52.168;20.878;2022-12-07T01:50:04;16.70;;;7.40;;
50681;SDS011;36779;52.168;20.878;2022-12-07T01:52:33;18.50;;;8.00;;
50681;SDS011;36779;52.168;20.878;2022-12-07T01:55:08;16.40;;;7.90;;
50681;SDS011;36779;52.168;20.878;2022-12-07T01:57:49;21.50;;;8.80;;
50681;SDS011;36779;52.168;20.878;2022-12-07T02:00:21;21.00;;;8.70;;
50681;SDS011;36779;52.168;20.878;2022-12-07T02:02:53;18.40;;;8.00;;
50681;SDS011;36779;52.168;20.878;2022-12-07T02:05:27;17.00;;;7.60;;
50681;SDS011;36779;52.168;20.878;2022-12-07T02:07:56;18.70;;;7.60;;
50681;SDS011;36779;52.168;20.878;2022-12-07T02:10:28;17.60;;;7.20;;
50681;SDS011;36779;52.168;20.878;2022-12-07T02:13:00;18.80;;;7.80;;
50681;SDS011;36779;52.168;20.878;2022-12-07T02:15:34;15.40;;;8.10;;
50681;SDS011;36779;52.168;20.878;2022-12-07T02:18:16;28.10;;;9.50;;
50681;SDS011;36779;52.168;20.878;2022-12-07T02:20:52;29.30;;;12.10;;
50681;SDS011;36779;52.168;20.878;2022-12-07T02:23:33;28.90;;;11.40;;
50681;SDS011;36779;52.168;20.878;2022-12-07T02:26:21;28.20;;;10.90;;
50681;SDS011;36779;52.168;20.878;2022-12-07T02:29:05;26.20;;;11.40;;
50681;SDS011;36779;52.168;20.878;2022-12-07T02:31:43;26.00;;;11.00;;
50681;SDS011;36779;52.168;20.878;2022-12-07T02:34:18;29.70;;;12.20;;
50681;SDS011;36779;52.168;20.878;2022-12-07T02:36:56;23.50;;;9.50;;
50681;SDS011;36779;52.168;20.878;2022-12-07T02:39:33;21.30;;;9.50;;
50681;SDS011;36779;52.168;20.878;2022-12-07T02:42:12;17.10;;;8.10;;
50681;SDS011;36779;52.168;20.878;2022-12-07T02:44:44;15.50;;;7.10;;
50681;SDS011;36779;52.168;20.878;2022-12-07T02:47:15;18.60;;;7.20;;
50681;SDS011;36779;52.168;20.878;2022-12-07T02:49:47;15.50;;;6.60;;
50681;SDS011;36779;52.168;20.878;2022-12-07T02:52:17;18.70;;;6.80;;
50681;SDS011;36779;52.168;20.878;2022-12-07T02:54:45;17.80;;;5.60;;
50681;SDS011;36779;52.168;20.878;2022-12-07T02:57:28;12.80;;;5.60;;
50681;SDS011;36779;52.168;20.878;2022-12-07T03:00:07;10.70;;;5.40;;
50681;SDS011;36779;52.168;20.878;2022-12-07T03:02:45;9.10;;;5.00;;
50681;SDS011;36779;52.168;20.878;2022-12-07T03:08:18;9.80;;;4.40;;
50681;SDS011;36779;52.168;20.878;2022-12-07T03:10:56;9.50;;;4.40;;
50681;SDS011;36779;52.168;20.878;2022-12-07T03:13:30;7.70;;;3.70;;
50681;SDS011;36779;52.168;20.878;2022-12-07T03:16:14;8.30;;;4.10;;
50681;SDS011;36779;52.168;20.878;2022-12-07T03:18:46;9.20;;;4.30;;
50681;SDS011;36779;52.168;20.878;2022-12-07T03:21:20;8.90;;;4.00;;
50681;SDS011;36779;52.168;20.878;2022-12-07T03:23:56;8.50;;;4.10;;
50681;SDS011;36779;52.168;20.878;2022-12-07T03:26:30;7.90;;;3.70;;
50681;SDS011;36779;52.168;20.878;2022-12-07T03:29:04;9.60;;;4.20;;
50681;SDS011;36779;52.168;20.878;2022-12-07T03:31:37;6.00;;;3.40;;
50681;SDS011;36779;52.168;20.878;2022-12-07T03:34:10;5.00;;;2.20;;
50681;SDS011;36779;52.168;20.878;2022-12-07T03:36:43;8.50;;;3.90;;
50681;SDS011;36779;52.168;20.878;2022-12-07T03:39:20;7.40;;;3.90;;
50681;SDS011;36779;52.168;20.878;2022-12-07T03:41:54;9.10;;;4.40;;
50681;SDS011;36779;52.168;20.878;2022-12-07T03:44:27;8.90;;;3.70;;
50681;SDS011;36779;52.168;20.878;2022-12-07T03:46:58;7.50;;;3.80;;
50681;SDS011;36779;52.168;20.878;2022-12-07T03:49:43;6.60;;;3.50;;
50681;SDS011;36779;52.168;20.878;2022-12-07T03:52:18;7.60;;;3.80;;
50681;SDS011;36779;52.168;20.878;2022-12-07T03:54:53;8.80;;;4.10;;
50681;SDS011;36779;52.168;20.878;2022-12-07T03:57:27;7.10;;;4.00;;
50681;SDS011;36779;52.168;20.878;2022-12-07T03:59:59;7.60;;;3.90;;
50681;SDS011;36779;52.168;20.878;2022-12-07T04:02:39;6.70;;;3.70;;
50681;SDS011;36779;52.168;20.878;2022-12-07T04:05:09;9.30;;;4.10;;
50681;SDS011;36779;52.168;20.878;2022-12-07T04:07:41;8.70;;;3.60;;
50681;SDS011;36779;52.168;20.878;2022-12-07T04:10:10;8.10;;;3.80;;
50681;SDS011;36779;52.168;20.878;2022-12-07T04:12:39;7.80;;;3.70;;
50681;SDS011;36779;52.168;20.878;2022-12-07T04:15:08;8.40;;;3.70;;
50681;SDS011;36779;52.168;20.878;2022-12-07T04:17:38;5.90;;;3.30;;
50681;SDS011;36779;52.168;20.878;2022-12-07T04:20:08;7.60;;;3.90;;
50681;SDS011;36779;52.168;20.878;2022-12-07T04:22:38;11.00;;;3.80;;
50681;SDS011;36779;52.168;20.878;2022-12-07T04:25:07;6.00;;;3.70;;
50681;SDS011;36779;52.168;20.878;2022-12-07T04:27:36;7.80;;;3.80;;
50681;SDS011;36779;52.168;20.878;2022-12-07T04:30:07;10.10;;;4.30;;
50681;SDS011;36779;52.168;20.878;2022-12-07T04:32:37;7.20;;;3.60;;
50681;SDS011;36779;52.168;20.878;2022-12-07T04:35:06;9.10;;;4.00;;
50681;SDS011;36779;52.168;20.878;2022-12-07T04:37:36;8.80;;;4.20;;
50681;SDS011;36779;52.168;20.878;2022-12-07T04:40:07;8.90;;;4.40;;
50681;SDS011;36779;52.168;20.878;2022-12-07T04:42:38;8.20;;;3.80;;
50681;SDS011;36779;52.168;20.878;2022-12-07T04:45:09;8.90;;;4.20;;
50681;SDS011;36779;52.168;20.878;2022-12-07T04:47:38;8.00;;;4.00;;
50681;SDS011;36779;52.168;20.878;2022-12-07T04:50:15;10.60;;;5.20;;
50681;SDS011;36779;52.168;20.878;2022-12-07T04:52:45;11.00;;;4.50;;
50681;SDS011;36779;52.168;20.878;2022-12-07T04:55:14;11.30;;;4.60;;
50681;SDS011;36779;52.168;20.878;2022-12-07T04:57:43;8.50;;;4.20;;
50681;SDS011;36779;52.168;20.878;2022-12-07T05:00:12;8.70;;;3.90;;
50681;SDS011;36779;52.168;20.878;2022-12-07T05:02:41;9.00;;;4.20;;
50681;SDS011;36779;52.168;20.878;2022-12-07T05:05:10;8.00;;;4.40;;
50681;SDS011;36779;52.168;20.878;2022-12-07T05:07:38;8.80;;;4.50;;
50681;SDS011;36779;52.168;20.878;2022-12-07T05:10:08;7.60;;;4.00;;
50681;SDS011;36779;52.168;20.878;2022-12-07T05:12:37;9.30;;;4.40;;
50681;SDS011;36779;52.168;20.878;2022-12-07T05:15:10;7.60;;;3.80;;
50681;SDS011;36779;52.168;20.878;2022-12-07T05:17:38;6.50;;;3.90;;
50681;SDS011;36779;52.168;20.878;2022-12-07T05:20:09;9.20;;;4.70;;
50681;SDS011;36779;52.168;20.878;2022-12-07T05:22:38;9.50;;;4.90;;
50681;SDS011;36779;52.168;20.878;2022-12-07T05:25:08;8.20;;;4.40;;
50681;SDS011;36779;52.168;20.878;2022-12-07T05:27:37;10.30;;;4.90;;
50681;SDS011;36779;52.168;20.878;2022-12-07T05:30:07;9.70;;;4.50;;
50681;SDS011;36779;52.168;20.878;2022-12-07T05:32:36;11.80;;;4.60;;
50681;SDS011;36779;52.168;20.878;2022-12-07T05:35:06;9.80;;;4.70;;
50681;SDS011;36779;52.168;20.878;2022-12-07T05:37:35;8.80;;;4.60;;
50681;SDS011;36779;52.168;20.878;2022-12-07T05:40:05;8.40;;;4.80;;
50681;SDS011;36779;52.168;20.878;2022-12-07T05:42:39;9.50;;;4.60;;
50681;SDS011;36779;52.168;20.878;2022-12-07T05:45:09;11.00;;;4.70;;
50681;SDS011;36779;52.168;20.878;2022-12-07T05:47:38;12.70;;;5.50;;
50681;SDS011;36779;52.168;20.878;2022-12-07T05:50:07;10.40;;;4.70;;
50681;SDS011;36779;52.168;20.878;2022-12-07T05:52:45;17.10;;;5.40;;
50681;SDS011;36779;52.168;20.878;2022-12-07T05:55:13;11.50;;;5.20;;
50681;SDS011;36779;52.168;20.878;2022-12-07T05:57:46;11.80;;;5.20;;
50681;SDS011;36779;52.168;20.878;2022-12-07T06:00:34;13.80;;;5.60;;
50681;SDS011;36779;52.168;20.878;2022-12-07T06:03:03;14.40;;;5.80;;
50681;SDS011;36779;52.168;20.878;2022-12-07T06:05:32;12.80;;;5.40;;
50681;SDS011;36779;52.168;20.878;2022-12-07T06:08:00;13.80;;;5.70;;
50681;SDS011;36779;52.168;20.878;2022-12-07T06:10:35;14.10;;;5.30;;
50681;SDS011;36779;52.168;20.878;2022-12-07T06:13:07;11.90;;;5.50;;
50681;SDS011;36779;52.168;20.878;2022-12-07T06:15:37;13.90;;;6.40;;
50681;SDS011;36779;52.168;20.878;2022-12-07T06:18:06;13.70;;;5.90;;
50681;SDS011;36779;52.168;20.878;2022-12-07T06:20:39;10.60;;;4.20;;
50681;SDS011;36779;52.168;20.878;2022-12-07T06:23:12;13.10;;;6.00;;
50681;SDS011;36779;52.168;20.878;2022-12-07T06:25:45;13.30;;;5.80;;
50681;SDS011;36779;52.168;20.878;2022-12-07T06:28:14;12.90;;;5.60;;
50681;SDS011;36779;52.168;20.878;2022-12-07T06:30:42;13.20;;;5.40;;
50681;SDS011;36779;52.168;20.878;2022-12-07T06:33:14;15.00;;;5.70;;
50681;SDS011;36779;52.168;20.878;2022-12-07T06:35:46;13.00;;;5.40;;
50681;SDS011;36779;52.168;20.878;2022-12-07T06:38:15;13.20;;;5.70;;
50681;SDS011;36779;52.168;20.878;2022-12-07T06:40:43;15.40;;;6.10;;
50681;SDS011;36779;52.168;20.878;2022-12-07T06:43:13;15.00;;;6.20;;
50681;SDS011;36779;52.168;20.878;2022-12-07T06:45:41;14.90;;;5.90;;
50681;SDS011;36779;52.168;20.878;2022-12-07T06:48:10;14.80;;;6.20;;
50681;SDS011;36779;52.168;20.878;2022-12-07T06:50:39;11.80;;;5.30;;
50681;SDS011;36779;52.168;20.878;2022-12-07T06:53:08;14.00;;;6.40;;
50681;SDS011;36779;52.168;20.878;2022-12-07T06:55:37;16.40;;;5.90;;
50681;SDS011;36779;52.168;20.878;2022-12-07T06:58:06;11.40;;;5.30;;
50681;SDS011;36779;52.168;20.878;2022-12-07T07:00:34;14.60;;;6.00;;
50681;SDS011;36779;52.168;20.878;2022-12-07T07:03:03;16.30;;;6.70;;
50681;SDS011;36779;52.168;20.878;2022-12-07T07:05:32;15.40;;;6.10;;
50681;SDS011;36779;52.168;20.878;2022-12-07T07:08:01;17.40;;;6.90;;
50681;SDS011;36779;52.168;20.878;2022-12-07T07:13:18;12.60;;;5.30;;
50681;SDS011;36779;52.168;20.878;2022-12-07T07:15:46;13.20;;;5.30;;
50681;SDS011;36779;52.168;20.878;2022-12-07T07:18:15;10.60;;;5.20;;
50681;SDS011;36779;52.168;20.878;2022-12-07T07:20:43;12.20;;;5.40;;
50681;SDS011;36779;52.168;20.878;2022-12-07T07:23:12;12.90;;;6.20;;
50681;SDS011;36779;52.168;20.878;2022-12-07T07:25:41;16.00;;;6.20;;
50681;SDS011;36779;52.168;20.878;2022-12-07T07:28:09;12.20;;;6.00;;
50681;SDS011;36779;52.168;20.878;2022-12-07T07:30:38;11.90;;;5.80;;
50681;SDS011;36779;52.168;20.878;2022-12-07T07:33:07;15.70;;;6.30;;
50681;SDS011;36779;52.168;20.878;2022-12-07T07:35:36;13.70;;;5.70;;
50681;SDS011;36779;52.168;20.878;2022-12-07T07:38:06;11.00;;;5.40;;
50681;SDS011;36779;52.168;20.878;2022-12-07T07:40:36;13.10;;;5.40;;
50681;SDS011;36779;52.168;20.878;2022-12-07T07:43:04;12.10;;;5.50;;
50681;SDS011;36779;52.168;20.878;2022-12-07T07:45:33;13.10;;;5.10;;
50681;SDS011;36779;52.168;20.878;2022-12-07T07:48:05;11.60;;;5.00;;
50681;SDS011;36779;52.168;20.878;2022-12-07T07:53:23;9.60;;;4.90;;
50681;SDS011;36779;52.168;20.878;2022-12-07T07:55:56;11.40;;;5.30;;
50681;SDS011;36779;52.168;20.878;2022-12-07T07:58:26;21.20;;;9.40;;
50681;SDS011;36779;52.168;20.878;2022-12-07T08:00:55;59.30;;;24.30;;
50681;SDS011;36779;52.168;20.878;2022-12-07T08:03:25;28.60;;;14.00;;
50681;SDS011;36779;52.168;20.878;2022-12-07T08:05:58;17.60;;;9.10;;
50681;SDS011;36779;52.168;20.878;2022-12-07T08:08:28;16.10;;;8.60;;
50681;SDS011;36779;52.168;20.878;2022-12-07T08:58:19;15.10;;;6.90;;
50681;SDS011;36779;52.168;20.878;2022-12-07T09:00:49;45.60;;;17.60;;
50681;SDS011;36779;52.168;20.878;2022-12-07T09:03:18;27.90;;;10.80;;
50681;SDS011;36779;52.168;20.878;2022-12-07T09:05:47;30.60;;;10.50;;
50681;SDS011;36779;52.168;20.878;2022-12-07T09:08:16;27.40;;;11.20;;
50681;SDS011;36779;52.168;20.878;2022-12-07T09:10:45;31.90;;;12.90;;
50681;SDS011;36779;52.168;20.878;2022-12-07T09:13:16;21.10;;;8.00;;
50681;SDS011;36779;52.168;20.878;2022-12-07T09:15:45;23.20;;;8.40;;
50681;SDS011;36779;52.168;20.878;2022-12-07T09:18:14;18.60;;;7.40;;
50681;SDS011;36779;52.168;20.878;2022-12-07T09:20:45;24.40;;;8.30;;
50681;SDS011;36779;52.168;20.878;2022-12-07T09:23:19;17.60;;;7.50;;
50681;SDS011;36779;52.168;20.878;2022-12-07T09:25:48;21.60;;;6.90;;
50681;SDS011;36779;52.168;20.878;2022-12-07T09:28:17;24.50;;;8.30;;
50681;SDS011;36779;52.168;20.878;2022-12-07T09:30:46;19.40;;;6.90;;
50681;SDS011;36779;52.168;20.878;2022-12-07T09:33:38;26.70;;;8.70;;
50681;SDS011;36779;52.168;20.878;2022-12-07T09:36:11;20.80;;;6.80;;
50681;SDS011;36779;52.168;20.878;2022-12-07T09:38:41;19.00;;;7.10;;
50681;SDS011;36779;52.168;20.878;2022-12-07T09:41:10;21.10;;;7.10;;
50681;SDS011;36779;52.168;20.878;2022-12-07T09:43:42;22.00;;;7.20;;
50681;SDS011;36779;52.168;20.878;2022-12-07T09:46:11;18.70;;;6.30;;
50681;SDS011;36779;52.168;20.878;2022-12-07T09:48:44;19.80;;;6.40;;
50681;SDS011;36779;52.168;20.878;2022-12-07T09:51:18;24.40;;;8.10;;
50681;SDS011;36779;52.168;20.878;2022-12-07T09:53:59;22.90;;;7.90;;
50681;SDS011;36779;52.168;20.878;2022-12-07T09:56:32;18.90;;;7.50;;
50681;SDS011;36779;52.168;20.878;2022-12-07T09:59:09;25.10;;;8.50;;
50681;SDS011;36779;52.168;20.878;2022-12-07T10:01:51;19.60;;;7.40;;
50681;SDS011;36779;52.168;20.878;2022-12-07T10:04:23;22.90;;;8.40;;
50681;SDS011;36779;52.168;20.878;2022-12-07T10:07:02;23.30;;;8.40;;
50681;SDS011;36779;52.168;20.878;2022-12-07T10:09:32;20.00;;;7.60;;
50681;SDS011;36779;52.168;20.878;2022-12-07T10:12:04;15.60;;;7.00;;
50681;SDS011;36779;52.168;20.878;2022-12-07T10:14:37;20.00;;;6.70;;
50681;SDS011;36779;52.168;20.878;2022-12-07T10:17:31;21.30;;;7.60;;
50681;SDS011;36779;52.168;20.878;2022-12-07T10:20:10;22.00;;;7.30;;
50681;SDS011;36779;52.168;20.878;2022-12-07T10:23:03;20.90;;;8.20;;
50681;SDS011;36779;52.168;20.878;2022-12-07T10:25:41;28.50;;;11.40;;
50681;SDS011;36779;52.168;20.878;2022-12-07T10:28:12;29.70;;;10.60;;
50681;SDS011;36779;52.168;20.878;2022-12-07T10:30:47;41.70;;;15.10;;
50681;SDS011;36779;52.168;20.878;2022-12-07T10:33:27;42.50;;;13.90;;
50681;SDS011;36779;52.168;20.878;2022-12-07T10:35:59;19.90;;;8.20;;
50681;SDS011;36779;52.168;20.878;2022-12-07T10:38:45;15.30;;;6.20;;
50681;SDS011;36779;52.168;20.878;2022-12-07T10:41:16;22.70;;;9.00;;
50681;SDS011;36779;52.168;20.878;2022-12-07T10:43:54;18.10;;;6.70;;
50681;SDS011;36779;52.168;20.878;2022-12-07T10:49:37;16.20;;;7.10;;
50681;SDS011;36779;52.168;20.878;2022-12-07T10:52:21;18.70;;;7.10;;
50681;SDS011;36779;52.168;20.878;2022-12-07T10:55:06;15.90;;;6.90;;
50681;SDS011;36779;52.168;20.878;2022-12-07T10:57:46;26.50;;;9.10;;
50681;SDS011;36779;52.168;20.878;2022-12-07T11:00:34;20.40;;;9.40;;
50681;SDS011;36779;52.168;20.878;2022-12-07T11:03:27;17.00;;;7.30;;
50681;SDS011;36779;52.168;20.878;2022-12-07T11:06:07;24.00;;;10.40;;
50681;SDS011;36779;52.168;20.878;2022-12-07T11:08:47;22.10;;;8.40;;
50681;SDS011;36779;52.168;20.878;2022-12-07T11:11:44;18.10;;;7.90;;
50681;SDS011;36779;52.168;20.878;2022-12-07T11:14:26;14.80;;;6.30;;
50681;SDS011;36779;52.168;20.878;2022-12-07T11:17:07;17.00;;;7.80;;
50681;SDS011;36779;52.168;20.878;2022-12-07T11:19:46;13.00;;;4.90;;
50681;SDS011;36779;52.168;20.878;2022-12-07T11:22:29;14.40;;;6.70;;
50681;SDS011;36779;52.168;20.878;2022-12-07T11:25:15;14.90;;;6.40;;
50681;SDS011;36779;52.168;20.878;2022-12-07T11:28:00;17.50;;;7.80;;
50681;SDS011;36779;52.168;20.878;2022-12-07T11:30:46;17.50;;;7.90;;
50681;SDS011;36779;52.168;20.878;2022-12-07T11:33:33;17.40;;;7.60;;
50681;SDS011;36779;52.168;20.878;2022-12-07T11:36:22;16.60;;;6.70;;
50681;SDS011;36779;52.168;20.878;2022-12-07T11:39:07;18.30;;;7.60;;
50681;SDS011;36779;52.168;20.878;2022-12-07T11:41:44;22.30;;;8.60;;
50681;SDS011;36779;52.168;20.878;2022-12-07T11:44:23;18.70;;;9.10;;
50681;SDS011;36779;52.168;20.878;2022-12-07T11:46:59;13.30;;;6.20;;
50681;SDS011;36779;52.168;20.878;2022-12-07T11:49:43;22.90;;;9.60;;
50681;SDS011;36779;52.168;20.878;2022-12-07T11:52:25;19.40;;;8.00;;
50681;SDS011;36779;52.168;20.878;2022-12-07T11:55:05;17.30;;;7.70;;
50681;SDS011;36779;52.168;20.878;2022-12-07T11:57:46;14.90;;;6.50;;
50681;SDS011;36779;52.168;20.878;2022-12-07T12:00:21;18.00;;;7.50;;
50681;SDS011;36779;52.168;20.878;2022-12-07T12:02:55;15.60;;;6.60;;
50681;SDS011;36779;52.168;20.878;2022-12-07T12:05:30;14.60;;;6.70;;
50681;SDS011;36779;52.168;20.878;2022-12-07T12:08:01;19.20;;;8.30;;
50681;SDS011;36779;52.168;20.878;2022-12-07T12:11:06;15.40;;;6.80;;
50681;SDS011;36779;52.168;20.878;2022-12-07T12:13:54;22.10;;;9.00;;
50681;SDS011;36779;52.168;20.878;2022-12-07T12:17:16;25.50;;;10.40;;
50681;SDS011;36779;52.168;20.878;2022-12-07T12:20:04;22.60;;;8.60;;
50681;SDS011;36779;52.168;20.878;2022-12-07T12:22:45;25.30;;;10.90;;
50681;SDS011;36779;52.168;20.878;2022-12-07T12:25:20;22.20;;;9.00;;
50681;SDS011;36779;52.168;20.878;2022-12-07T12:27:59;32.40;;;13.50;;
50681;SDS011;36779;52.168;20.878;2022-12-07T12:30:32;21.40;;;9.10;;
50681;SDS011;36779;52.168;20.878;2022-12-07T12:33:05;25.10;;;10.90;;
50681;SDS011;36779;52.168;20.878;2022-12-07T12:35:45;32.30;;;13.40;;
50681;SDS011;36779;52.168;20.878;2022-12-07T12:38:48;31.10;;;12.50;;
50681;SDS011;36779;52.168;20.878;2022-12-07T12:47:40;23.60;;;9.60;;
50681;SDS011;36779;52.168;20.878;2022-12-07T12:50:21;19.30;;;8.20;;
50681;SDS011;36779;52.168;20.878;2022-12-07T12:52:56;21.50;;;8.70;;
50681;SDS011;36779;52.168;20.878;2022-12-07T12:59:23;14.40;;;6.30;;
50681;SDS011;36779;52.168;20.878;2022-12-07T13:02:16;11.20;;;6.00;;
50681;SDS011;36779;52.168;20.878;2022-12-07T13:04:59;17.50;;;8.50;;
50681;SDS011;36779;52.168;20.878;2022-12-07T13:10:40;29.60;;;11.50;;
50681;SDS011;36779;52.168;20.878;2022-12-07T13:22:39;39.20;;;15.80;;
50681;SDS011;36779;52.168;20.878;2022-12-07T13:25:21;16.80;;;8.40;;
50681;SDS011;36779;52.168;20.878;2022-12-07T13:27:59;18.90;;;8.50;;
50681;SDS011;36779;52.168;20.878;2022-12-07T13:33:14;21.90;;;10.70;;
50681;SDS011;36779;52.168;20.878;2022-12-07T13:35:46;18.00;;;7.70;;
50681;SDS011;36779;52.168;20.878;2022-12-07T13:38:19;18.10;;;7.10;;
50681;SDS011;36779;52.168;20.878;2022-12-07T13:41:14;24.80;;;9.90;;
50681;SDS011;36779;52.168;20.878;2022-12-07T13:43:46;18.40;;;8.50;;
50681;SDS011;36779;52.168;20.878;2022-12-07T13:46:24;29.50;;;11.80;;
50681;SDS011;36779;52.168;20.878;2022-12-07T13:49:17;14.30;;;6.90;;
50681;SDS011;36779;52.168;20.878;2022-12-07T13:51:52;16.40;;;7.30;;
50681;SDS011;36779;52.168;20.878;2022-12-07T13:54:22;17.20;;;7.80;;
50681;SDS011;36779;52.168;20.878;2022-12-07T13:56:51;24.10;;;10.70;;
50681;SDS011;36779;52.168;20.878;2022-12-07T13:59:23;32.80;;;14.20;;
50681;SDS011;36779;52.168;20.878;2022-12-07T14:02:16;19.00;;;9.00;;
50681;SDS011;36779;52.168;20.878;2022-12-07T14:04:49;18.00;;;8.80;;
50681;SDS011;36779;52.168;20.878;2022-12-07T14:07:20;14.50;;;7.20;;
50681;SDS011;36779;52.168;20.878;2022-12-07T14:09:55;14.50;;;7.20;;
50681;SDS011;36779;52.168;20.878;2022-12-07T14:12:30;12.90;;;6.50;;
50681;SDS011;36779;52.168;20.878;2022-12-07T14:15:05;15.70;;;8.30;;
50681;SDS011;36779;52.168;20.878;2022-12-07T14:17:53;14.50;;;7.30;;
50681;SDS011;36779;52.168;20.878;2022-12-07T14:20:34;17.10;;;8.10;;
50681;SDS011;36779;52.168;20.878;2022-12-07T14:23:22;15.70;;;7.20;;
50681;SDS011;36779;52.168;20.878;2022-12-07T14:25:53;17.60;;;8.20;;
50681;SDS011;36779;52.168;20.878;2022-12-07T14:28:42;15.70;;;7.80;;
50681;SDS011;36779;52.168;20.878;2022-12-07T14:33:50;16.10;;;7.30;;
50681;SDS011;36779;52.168;20.878;2022-12-07T14:36:47;17.30;;;7.90;;
50681;SDS011;36779;52.168;20.878;2022-12-07T14:39:20;36.30;;;13.30;;
50681;SDS011;36779;52.168;20.878;2022-12-07T14:41:52;26.00;;;10.70;;
50681;SDS011;36779;52.168;20.878;2022-12-07T14:44:26;27.50;;;11.10;;
50681;SDS011;36779;52.168;20.878;2022-12-07T14:47:09;23.40;;;12.90;;
50681;SDS011;36779;52.168;20.878;2022-12-07T14:50:06;24.20;;;11.40;;
50681;SDS011;36779;52.168;20.878;2022-12-07T14:52:43;17.90;;;9.20;;
50681;SDS011;36779;52.168;20.878;2022-12-07T14:55:39;22.60;;;10.80;;
50681;SDS011;36779;52.168;20.878;2022-12-07T14:58:18;22.30;;;11.20;;
50681;SDS011;36779;52.168;20.878;2022-12-07T15:00:50;16.90;;;9.00;;
50681;SDS011;36779;52.168;20.878;2022-12-07T15:03:22;28.30;;;13.70;;
50681;SDS011;36779;52.168;20.878;2022-12-07T15:06:00;31.40;;;14.70;;
50681;SDS011;36779;52.168;20.878;2022-12-07T15:08:42;16.40;;;8.30;;
50681;SDS011;36779;52.168;20.878;2022-12-07T15:11:33;15.30;;;7.60;;
50681;SDS011;36779;52.168;20.878;2022-12-07T15:14:18;16.10;;;7.80;;
50681;SDS011;36779;52.168;20.878;2022-12-07T15:16:53;17.10;;;8.00;;
50681;SDS011;36779;52.168;20.878;2022-12-07T15:19:45;15.70;;;7.50;;
50681;SDS011;36779;52.168;20.878;2022-12-07T15:22:28;19.70;;;10.60;;
50681;SDS011;36779;52.168;20.878;2022-12-07T15:25:08;17.90;;;7.40;;
50681;SDS011;36779;52.168;20.878;2022-12-07T15:27:48;15.80;;;6.50;;
50681;SDS011;36779;52.168;20.878;2022-12-07T15:30:21;18.20;;;7.80;;
50681;SDS011;36779;52.168;20.878;2022-12-07T15:32:54;16.90;;;8.10;;
50681;SDS011;36779;52.168;20.878;2022-12-07T15:35:27;18.60;;;7.50;;
50681;SDS011;36779;52.168;20.878;2022-12-07T15:38:03;17.40;;;7.50;;
50681;SDS011;36779;52.168;20.878;2022-12-07T15:40:35;16.80;;;7.30;;
50681;SDS011;36779;52.168;20.878;2022-12-07T15:43:09;18.80;;;8.00;;
50681;SDS011;36779;52.168;20.878;2022-12-07T15:45:55;14.90;;;6.50;;
50681;SDS011;36779;52.168;20.878;2022-12-07T15:48:30;17.40;;;6.60;;
50681;SDS011;36779;52.168;20.878;2022-12-07T15:51:09;14.70;;;6.80;;
50681;SDS011;36779;52.168;20.878;2022-12-07T15:53:42;16.00;;;6.20;;
50681;SDS011;36779;52.168;20.878;2022-12-07T15:56:16;17.20;;;7.50;;
50681;SDS011;36779;52.168;20.878;2022-12-07T15:58:49;15.80;;;7.20;;
50681;SDS011;36779;52.168;20.878;2022-12-07T16:01:22;36.00;;;15.70;;
50681;SDS011;36779;52.168;20.878;2022-12-07T16:03:55;29.20;;;12.10;;
50681;SDS011;36779;52.168;20.878;2022-12-07T16:06:33;78.30;;;28.30;;
50681;SDS011;36779;52.168;20.878;2022-12-07T16:09:06;68.20;;;28.00;;
50681;SDS011;36779;52.168;20.878;2022-12-07T16:11:41;50.60;;;21.40;;
50681;SDS011;36779;52.168;20.878;2022-12-07T16:14:13;31.40;;;14.80;;
50681;SDS011;36779;52.168;20.878;2022-12-07T16:16:45;33.70;;;15.40;;
50681;SDS011;36779;52.168;20.878;2022-12-07T16:19:32;58.30;;;25.40;;
50681;SDS011;36779;52.168;20.878;2022-12-07T16:22:05;24.60;;;11.90;;
50681;SDS011;36779;52.168;20.878;2022-12-07T16:24:40;18.50;;;9.70;;
50681;SDS011;36779;52.168;20.878;2022-12-07T16:27:13;18.90;;;8.50;;
50681;SDS011;36779;52.168;20.878;2022-12-07T16:29:45;17.80;;;9.30;;
50681;SDS011;36779;52.168;20.878;2022-12-07T16:32:21;14.20;;;7.20;;
50681;SDS011;36779;52.168;20.878;2022-12-07T16:34:55;20.80;;;9.10;;